Nearby METAR Reports

 

KPMP - Pompano Beach, Florida, USA
Distance from station: NNW 3mi, 5km
Updated: 05/12/2021 6:53pm
Few Clouds
Few Clouds
 Wind from SSE
Wind: SSE 10 mph , 17 km/h
Temperature: 82°F , 28°C
Heat Index: 87°F , 31°C
Dew Point: 73°F , 23°C
Humidity: 74%
Barometer: 29.99 inHg , 1015.6 hPa
Clouds: Few Clouds
Visibility: 10 miles , 16 km
Cloud details: Few Clouds 12000 ft
2021/05/12 22:53 KPMP 122253Z 16009KT 10SM FEW120 28/23 A2999 RMK AO2 LTG DSNT NW SLP155 T02830228
KFXE - Ft Lauderd/Exec, Florida, USA
Distance from station: W 6mi, 9km
Updated: 05/12/2021 6:53pm
Mostly cloudy
Mostly cloudy
 Wind from SE
Wind: SE 9 mph , 15 km/h
Temperature: 84°F , 29°C
Heat Index: 89°F , 32°C
Dew Point: 72°F , 22°C
Humidity: 66%
Barometer: 29.98 inHg , 1015.2 hPa
Clouds: Mostly cloudy
Visibility: 10 miles , 16 km
Cloud details: Few Clouds 7000 ft
Mostly cloudy 9000 ft
2021/05/12 22:53 KFXE 122253Z 14008KT 10SM FEW070 BKN090 29/22 A2998 RMK AO2 SLP154 T02890222
 
KFLL - Ft Lauderd/Holly, Florida, USA
Distance from station: SSW 11mi, 17km
Updated: 05/12/2021 6:53pm
Mostly cloudy
Mostly cloudy
 Wind from SSE
Wind: SSE 12 mph , 19 km/h
Temperature: 84°F , 29°C
Heat Index: 92°F , 33°C
Dew Point: 75°F , 24°C
Humidity: 74%
Barometer: 29.98 inHg , 1015.2 hPa
Clouds: Mostly cloudy
Visibility: 10 miles , 16 km
Cloud details: Few Clouds 3500 ft
Few Clouds 11000 ft
Partly cloudy 17000 ft
Mostly cloudy 25000 ft
2021/05/12 22:53 KFLL 122253Z 16010KT 10SM FEW035 FEW110 SCT170 BKN250 29/24 A2998 RMK AO2 SLP150 CB DSNT NW T02890239
KBCT - Boca Raton, Florida, USA
Distance from station: N 12mi, 19km
Updated: 05/12/2021 5:47pm
NOT Current
Few Clouds
Few Clouds
 Wind from S
Wind: S 17 mph , 28 km/h
Temperature: 90°F , 32°C
Heat Index: 99°F , 37°C
Dew Point: 73°F , 23°C
Humidity: 59%
Barometer: 29.98 inHg , 1015.2 hPa
Clouds: Few Clouds
Visibility: 10 miles , 16 km
Cloud details: Few Clouds 4400 ft
2021/05/12 21:47 KBCT 122147Z 18015KT 10SM FEW044 32/23 A2998
 
KHWO - Hollywood, Florida, USA
Distance from station: SSW 17mi, 27km
Updated: 05/12/2021 6:53pm
Clear
Clear
 Wind from SSE
Wind: SSE 9 mph , 15 km/h
Temperature: 84°F , 29°C
Heat Index: 89°F , 32°C
Dew Point: 72°F , 22°C
Humidity: 66%
Barometer: 30.00 inHg , 1015.9 hPa
Clouds: Clear
Visibility: 10 miles , 16 km
2021/05/12 22:53 KHWO 122253Z 16008KT 10SM CLR 29/22 A3000 RMK AO2 SLP158 T02940217
KOPF - Miami/Opa Locka, Florida, USA
Distance from station: SSW 24mi, 38km
Updated: 05/12/2021 6:53pm
Clear
Clear
 Wind from SSE
Wind: SSE 13 mph , 20 km/h
Temperature: 88°F , 31°C
Heat Index: 93°F , 34°C
Dew Point: 70°F , 21°C
Humidity: 55%
Barometer: 29.99 inHg , 1015.6 hPa
Clouds: Clear
Visibility: 10 miles , 16 km
2021/05/12 22:53 KOPF 122253Z 15011KT 10SM CLR 31/21 A2999 RMK AO2 SLP156 T03060211
 
KMIA - Miami, Florida, USA
Distance from station: SSW 31mi, 50km
Updated: 05/12/2021 6:53pm
Mostly cloudy
Mostly cloudy
 Wind from S
Wind: S 10 mph , 17 km/h, Gust: 17 mph , 28 km/h
Temperature: 84°F , 29°C
Heat Index: 90°F , 32°C
Dew Point: 73°F , 23°C
Humidity: 70%
Barometer: 29.99 inHg , 1015.6 hPa
Clouds: Mostly cloudy
Visibility: 10 miles , 16 km
Cloud details: Few Clouds 2500 ft
Few Clouds 11000 ft
Mostly cloudy 25000 ft
2021/05/12 22:53 KMIA 122253Z 17009G15KT 10SM FEW025 FEW110 BKN250 29/23 A2999 RMK AO2 SLP155 CB DSNT N AND SW T02940228 $
KPBI - West Palm Beach, Florida, USA
Distance from station: N 33mi, 52km
Updated: 05/12/2021 6:53pm
Thunderstorm, Mostly cloudy
Thunderstorm, Mostly cloudy
 Wind from SSE
Wind: SSE 8 mph , 13 km/h
Temperature: 84°F , 29°C
Heat Index: 90°F , 32°C
Dew Point: 73°F , 23°C
Humidity: 70%
Barometer: 30.00 inHg , 1015.9 hPa
Summary: Thunderstorm
Clouds: Mostly cloudy
Visibility: 10 miles , 16 km
Cloud details: Partly cloudy 3400 ft
Partly cloudy 7000 ft
Mostly cloudy 25000 ft
2021/05/12 22:53 KPBI 122253Z 15007KT 10SM TS SCT034CB SCT070 BKN250 29/23 A3000 RMK AO2 LTG DSNT SW AND W PRESRR SLP159 OCNL LTGICCG SW-W TS SW-W MOV E T02890228
 
KTMB - Miami/Tamiami, Florida, USA
Distance from station: SSW 44mi, 71km
Updated: 05/12/2021 6:53pm
Mostly cloudy
Mostly cloudy
 Wind from SE
Wind: SE 3 mph , 6 km/h
Temperature: 82°F , 28°C
Heat Index: 89°F , 32°C
Dew Point: 75°F , 24°C
Humidity: 79%
Barometer: 29.98 inHg , 1015.2 hPa
Clouds: Mostly cloudy
Visibility: 10 miles , 16 km
Cloud details: Partly cloudy 2800 ft
Mostly cloudy 5000 ft
2021/05/12 22:53 KTMB 122253Z 14003KT 10SM SCT028 BKN050 28/24 A2998 RMK AO2 RAB02E52 SLP151 P0001 T02830239